Terminal Aerodrome Forecast
Issued by NWS Wilmington, OH

Current Version | Previous Version | Graphics & Text | Print | Product List | Glossary On
Versions: 1 2 3 4 5 6 7 8 9 10 11 12 13 14 15 16 17 18 19 20 21 22 23
000
FTUS41 KILN 242340
TAFDAY
TAF
KDAY 242340Z 2500/2524 08007KT 3SM SHRA VCTS OVC045CB
     FM250200 04008KT 4SM SHRA VCTS OVC019CB
     FM250400 04007KT 6SM -SHRA VCTS OVC018CB
     FM250500 06007KT P6SM VCTS OVC016CB
     FM250800 13006KT P6SM VCTS OVC010CB
     FM251100 13006KT 5SM -SHRA OVC011
     FM251400 25006KT 6SM -SHRA OVC016
     FM251800 30009KT 5SM -SHRA OVC026
     FM252000 30011KT P6SM OVC010=

USA.gov is the U.S. government's official web portal to all federal, state and local government web resources and services.